createdAt,value
2019-02-11T00:00:29.989Z,100.00
2019-02-11T00:02:58.571Z,100.00
2019-02-11T00:05:27.110Z,100.00
2019-02-11T00:07:55.662Z,100.00
2019-02-11T00:10:24.271Z,100.00
2019-02-11T00:12:52.934Z,100.00
2019-02-11T00:15:21.584Z,100.00
2019-02-11T00:17:50.203Z,100.00
2019-02-11T00:20:18.785Z,100.00
2019-02-11T00:22:47.409Z,100.00
2019-02-11T00:25:15.949Z,100.00
2019-02-11T00:27:44.558Z,100.00
2019-02-11T00:30:13.394Z,100.00
2019-02-11T00:32:42.041Z,100.00
2019-02-11T00:35:10.593Z,100.00
2019-02-11T00:37:39.192Z,100.00
2019-02-11T00:40:08.527Z,100.00
2019-02-11T00:42:37.182Z,100.00
2019-02-11T00:45:07.910Z,100.00
2019-02-11T00:47:36.601Z,100.00
2019-02-11T00:50:08.636Z,100.00
2019-02-11T00:52:37.458Z,100.00
2019-02-11T00:55:06.659Z,100.00
2019-02-11T00:57:35.645Z,100.00
2019-02-11T01:00:06.015Z,100.00
2019-02-11T01:02:34.652Z,100.00
2019-02-11T01:05:03.468Z,100.00
2019-02-11T01:07:32.130Z,100.00
2019-02-11T01:10:01.016Z,100.00
2019-02-11T01:12:29.700Z,100.00
2019-02-11T01:14:58.272Z,100.00
2019-02-11T01:17:26.872Z,100.00
2019-02-11T01:19:55.437Z,100.00
2019-02-11T01:22:24.043Z,100.00
2019-02-11T01:24:52.603Z,100.00
2019-02-11T01:27:21.222Z,100.00
2019-02-11T01:29:50.194Z,100.00
2019-02-11T01:32:18.782Z,100.00
2019-02-11T01:34:47.346Z,100.00
2019-02-11T01:37:15.950Z,100.00
2019-02-11T01:39:44.442Z,100.00
2019-02-11T01:42:13.045Z,100.00
2019-02-11T01:44:41.573Z,100.00
2019-02-11T01:47:10.232Z,100.00
2019-02-11T01:49:38.946Z,100.00
2019-02-11T01:52:07.512Z,100.00
2019-02-11T01:54:38.720Z,100.00
2019-02-11T01:57:07.390Z,100.00
2019-02-11T01:59:36.267Z,100.00
2019-02-11T02:02:04.867Z,100.00
2019-02-11T02:04:33.452Z,100.00
2019-02-11T02:07:02.110Z,100.00
2019-02-11T02:09:30.709Z,100.00
2019-02-11T02:11:59.294Z,100.00
2019-02-11T02:14:27.873Z,100.00
2019-02-11T02:16:56.461Z,100.00
2019-02-11T02:19:25.414Z,100.00
2019-02-11T02:21:54.024Z,100.00
2019-02-11T02:24:22.644Z,100.00
2019-02-11T02:26:51.297Z,100.00
2019-02-11T02:29:20.288Z,100.00
2019-02-11T02:31:48.990Z,100.00
2019-02-11T02:34:17.972Z,100.00
2019-02-11T02:36:46.748Z,100.00
2019-02-11T02:39:15.360Z,100.00
2019-02-11T02:41:43.905Z,100.00
2019-02-11T02:44:12.509Z,100.00
2019-02-11T02:46:41.060Z,100.00
2019-02-11T02:49:09.676Z,100.00
2019-02-11T02:51:38.243Z,100.00
2019-02-11T02:54:06.764Z,100.00
2019-02-11T02:56:35.424Z,100.00
2019-02-11T02:59:03.983Z,100.00
2019-02-11T03:01:32.700Z,100.00
2019-02-11T03:04:01.265Z,100.00
2019-02-11T03:06:29.869Z,100.00
2019-02-11T03:08:58.434Z,100.00
2019-02-11T03:11:27.029Z,100.00
2019-02-11T03:14:03.815Z,100.00
2019-02-11T03:16:25.941Z,100.00
2019-02-11T03:18:54.825Z,100.00
2019-02-11T03:21:23.413Z,100.00
2019-02-11T03:23:52.078Z,100.00
2019-02-11T03:26:20.684Z,100.00
2019-02-11T03:28:49.310Z,100.00
2019-02-11T03:31:17.857Z,100.00
2019-02-11T03:33:46.717Z,100.00
2019-02-11T03:36:15.327Z,100.00
2019-02-11T03:38:44.013Z,100.00
2019-02-11T03:41:12.570Z,100.00
2019-02-11T03:43:41.177Z,100.00
2019-02-11T03:46:09.742Z,100.00
2019-02-11T03:48:38.365Z,100.00
2019-02-11T03:51:06.927Z,100.00
2019-02-11T03:53:35.971Z,100.00
2019-02-11T03:56:04.743Z,100.00
2019-02-11T03:58:33.376Z,100.00
2019-02-11T04:01:01.984Z,100.00
2019-02-11T04:03:30.648Z,100.00
2019-02-11T04:05:59.225Z,100.00
2019-02-11T04:08:27.830Z,100.00
2019-02-11T04:10:56.393Z,100.00
2019-02-11T04:13:25.300Z,100.00
2019-02-11T04:15:53.872Z,100.00
2019-02-11T04:18:22.473Z,100.00
2019-02-11T04:20:50.970Z,100.00
2019-02-11T04:23:20.248Z,100.00
2019-02-11T04:25:48.839Z,100.00
2019-02-11T04:28:17.358Z,100.00
2019-02-11T04:30:45.902Z,100.00
2019-02-11T04:33:14.691Z,100.00
2019-02-11T04:35:43.250Z,100.00
2019-02-11T04:38:11.876Z,100.00
2019-02-11T04:40:40.427Z,100.00
2019-02-11T04:43:09.291Z,100.00
2019-02-11T04:45:38.226Z,100.00
2019-02-11T04:48:06.914Z,100.00
2019-02-11T04:50:35.538Z,100.00
2019-02-11T04:53:04.216Z,100.00
2019-02-11T04:55:33.060Z,100.00
2019-02-11T04:58:01.645Z,100.00
2019-02-11T05:00:35.829Z,100.00
2019-02-11T05:03:04.448Z,100.00
2019-02-11T05:05:33.014Z,100.00
2019-02-11T05:08:01.614Z,100.00
2019-02-11T05:10:30.173Z,100.00
2019-02-11T05:12:58.882Z,100.00
2019-02-11T05:15:27.872Z,100.00
2019-02-11T05:17:56.471Z,100.00
2019-02-11T05:20:25.032Z,100.00
2019-02-11T05:22:54.029Z,100.00
2019-02-11T05:25:22.598Z,100.00
2019-02-11T05:27:51.198Z,100.00
2019-02-11T05:30:19.763Z,100.00
2019-02-11T05:32:48.369Z,100.00
2019-02-11T05:35:16.950Z,100.00
2019-02-11T05:37:45.577Z,100.00
2019-02-11T05:40:14.422Z,100.00
2019-02-11T05:42:43.023Z,100.00
2019-02-11T05:45:11.516Z,100.00
2019-02-11T05:47:40.080Z,100.00
2019-02-11T05:50:11.086Z,100.00
2019-02-11T05:52:39.903Z,100.00
2019-02-11T05:55:08.783Z,100.00
2019-02-11T05:57:37.843Z,100.00
2019-02-11T06:00:12.064Z,100.00
2019-02-11T06:02:40.607Z,100.00
2019-02-11T06:05:09.145Z,100.00
2019-02-11T06:07:37.764Z,100.00
2019-02-11T06:10:09.221Z,100.00
2019-02-11T06:12:38.193Z,100.00
2019-02-11T06:15:07.860Z,100.00
2019-02-11T06:17:36.846Z,100.00
2019-02-11T06:20:08.461Z,100.00
2019-02-11T06:22:37.025Z,100.00
2019-02-11T06:25:07.475Z,100.00
2019-02-11T06:27:36.137Z,100.00
2019-02-11T06:30:08.014Z,100.00
2019-02-11T06:32:36.597Z,100.00
2019-02-11T06:35:07.703Z,100.00
2019-02-11T06:37:36.254Z,100.00
2019-02-11T06:40:07.733Z,100.00
2019-02-11T06:42:36.499Z,100.00
2019-02-11T06:45:13.168Z,100.00
2019-02-11T06:47:38.585Z,100.00
2019-02-11T06:50:10.116Z,100.00
2019-02-11T06:52:38.686Z,100.00
2019-02-11T06:55:09.962Z,100.00
2019-02-11T06:57:38.663Z,100.00
2019-02-11T07:00:13.411Z,100.00
2019-02-11T07:02:42.037Z,100.00
2019-02-11T07:05:10.539Z,100.00
2019-02-11T07:07:39.141Z,100.00
2019-02-11T07:10:12.245Z,100.00
2019-02-11T07:12:40.845Z,100.00
2019-02-11T07:15:21.592Z,100.00
2019-02-11T07:17:44.860Z,100.00
2019-02-11T07:20:13.446Z,100.00
2019-02-11T07:22:42.356Z,100.00
2019-02-11T07:25:10.957Z,100.00
2019-02-11T07:27:39.550Z,100.00
2019-02-11T07:30:11.019Z,100.00
2019-02-11T07:32:39.602Z,100.00
2019-02-11T07:35:08.211Z,100.00
2019-02-11T07:37:36.804Z,100.00
2019-02-11T07:40:10.207Z,100.00
2019-02-11T07:42:40.866Z,100.00
2019-02-11T07:45:12.531Z,100.00
2019-02-11T07:47:41.106Z,100.00
2019-02-11T07:50:09.666Z,100.00
2019-02-11T07:52:38.610Z,100.00
2019-02-11T07:55:07.530Z,100.00
2019-02-11T07:57:36.449Z,100.00
2019-02-11T08:00:06.911Z,100.00
2019-02-11T08:02:35.473Z,100.00
2019-02-11T08:05:04.830Z,100.00
2019-02-11T08:07:33.403Z,100.00
2019-02-11T08:10:02.318Z,100.00
2019-02-11T08:12:31.243Z,100.00
2019-02-11T08:14:59.761Z,100.00
2019-02-11T08:17:28.424Z,100.00
2019-02-11T08:19:56.965Z,100.00
2019-02-11T08:22:25.543Z,100.00
2019-02-11T08:24:54.055Z,100.00
2019-02-11T08:27:22.602Z,100.00
2019-02-11T08:29:51.136Z,100.00
2019-02-11T08:32:19.735Z,100.00
2019-02-11T08:34:48.268Z,100.00
2019-02-11T08:37:16.875Z,100.00
2019-02-11T08:39:45.495Z,100.00
2019-02-11T08:42:14.071Z,100.00
2019-02-11T08:44:42.616Z,100.00
2019-02-11T08:47:11.314Z,100.00
2019-02-11T08:49:39.868Z,100.00
2019-02-11T08:52:08.396Z,100.00
2019-02-11T08:54:37.397Z,100.00
2019-02-11T08:57:05.866Z,100.00
2019-02-11T08:59:34.431Z,100.00
2019-02-11T09:02:02.974Z,100.00
2019-02-11T09:04:31.647Z,100.00
2019-02-11T09:07:00.585Z,100.00
2019-02-11T09:09:29.135Z,100.00
2019-02-11T09:11:57.731Z,100.00
2019-02-11T09:14:26.280Z,100.00
2019-02-11T09:16:54.776Z,100.00
2019-02-11T09:19:23.351Z,100.00
2019-02-11T09:21:51.852Z,100.00
2019-02-11T09:24:20.416Z,100.00
2019-02-11T09:26:48.916Z,100.00
2019-02-11T09:29:17.470Z,100.00
2019-02-11T09:31:45.992Z,100.00
2019-02-11T09:34:14.541Z,100.00
2019-02-11T09:36:43.469Z,100.00
2019-02-11T09:39:12.109Z,100.00
2019-02-11T09:41:40.711Z,100.00
2019-02-11T09:44:09.286Z,100.00
2019-02-11T09:46:37.829Z,100.00
2019-02-11T09:49:06.427Z,100.00
2019-02-11T09:51:37.843Z,100.00
2019-02-11T09:54:06.422Z,100.00
2019-02-11T09:56:35.025Z,100.00
2019-02-11T09:59:03.604Z,100.00
2019-02-11T10:01:32.580Z,100.00
2019-02-11T10:04:01.572Z,100.00
2019-02-11T10:06:30.098Z,100.00
2019-02-11T10:08:58.666Z,100.00
2019-02-11T10:11:27.186Z,100.00
2019-02-11T10:13:55.762Z,100.00
2019-02-11T10:16:24.302Z,100.00
2019-02-11T10:18:52.939Z,100.00
2019-02-11T10:21:21.512Z,100.00
2019-02-11T10:23:52.132Z,100.00
2019-02-11T10:26:22.623Z,100.00
2019-02-11T10:28:51.204Z,100.00
2019-02-11T10:31:19.753Z,100.00
2019-02-11T10:33:48.376Z,100.00
2019-02-11T10:36:17.863Z,100.00
2019-02-11T10:38:46.425Z,100.00
2019-02-11T10:41:14.939Z,100.00
2019-02-11T10:43:43.544Z,98.83
2019-02-11T10:46:12.042Z,95.91
2019-02-11T10:48:40.667Z,95.88
2019-02-11T10:51:09.184Z,95.03
2019-02-11T10:53:37.770Z,95.98
2019-02-11T10:56:06.330Z,96.32
2019-02-11T10:58:34.882Z,90.37
2019-02-11T11:01:03.809Z,91.00
2019-02-11T11:03:32.365Z,89.06
2019-02-11T11:06:00.896Z,91.04
2019-02-11T11:08:29.501Z,89.28
2019-02-11T11:10:58.056Z,86.57
2019-02-11T11:13:27.075Z,86.89
2019-02-11T11:15:55.647Z,87.31
2019-02-11T11:18:24.176Z,84.90
2019-02-11T11:20:52.698Z,84.06
2019-02-11T11:23:21.362Z,84.93
2019-02-11T11:25:49.868Z,83.91
2019-02-11T11:28:18.536Z,84.80
2019-02-11T11:30:47.074Z,84.99
2019-02-11T11:33:16.110Z,85.38
2019-02-11T11:35:44.622Z,84.87
2019-02-11T11:38:13.199Z,84.37
2019-02-11T11:40:41.724Z,86.78
2019-02-11T11:43:10.371Z,88.29
2019-02-11T11:45:38.888Z,86.20
2019-02-11T11:48:07.533Z,85.76
2019-02-11T11:50:36.167Z,86.08
2019-02-11T11:53:04.941Z,86.04
2019-02-11T11:55:33.911Z,86.34
2019-02-11T11:58:02.548Z,85.65
2019-02-11T12:00:33.304Z,85.53
2019-02-11T12:03:04.848Z,85.81
2019-02-11T12:05:32.264Z,86.99
2019-02-11T12:08:00.840Z,86.60
2019-02-11T12:10:29.399Z,86.67
2019-02-11T12:12:58.004Z,85.36
2019-02-11T12:15:27.574Z,86.10
2019-02-11T12:17:56.194Z,85.77
2019-02-11T12:20:24.756Z,86.74
2019-02-11T12:22:53.448Z,87.07
2019-02-11T12:25:22.049Z,87.34
2019-02-11T12:27:50.599Z,88.79
2019-02-11T12:30:24.825Z,89.06
2019-02-11T12:32:55.489Z,86.66
2019-02-11T12:35:24.280Z,86.86
2019-02-11T12:37:53.298Z,83.55
2019-02-11T12:40:21.906Z,83.81
2019-02-11T12:42:53.116Z,74.68
2019-02-11T12:45:24.039Z,76.22
2019-02-11T12:47:55.183Z,74.42
2019-02-11T12:50:28.222Z,65.61
2019-02-11T12:52:56.817Z,73.12
2019-02-11T12:55:25.365Z,80.14
2019-02-11T12:57:54.047Z,72.21
2019-02-11T13:00:23.937Z,68.24
2019-02-11T13:02:52.649Z,69.73
2019-02-11T13:05:23.511Z,72.56
2019-02-11T13:07:51.538Z,74.40
2019-02-11T13:10:20.510Z,77.76
2019-02-11T13:12:49.435Z,77.46
2019-02-11T13:15:52.887Z,76.75
2019-02-11T13:17:50.184Z,76.44
2019-02-11T13:20:19.424Z,70.96
2019-02-11T13:22:48.516Z,75.20
2019-02-11T13:25:17.754Z,74.04
2019-02-11T13:27:46.394Z,74.74
2019-02-11T13:30:18.264Z,74.25
2019-02-11T13:32:46.849Z,75.40
2019-02-11T13:35:15.815Z,73.30
2019-02-11T13:37:44.449Z,69.43
2019-02-11T13:40:13.147Z,74.10
2019-02-11T13:42:41.879Z,73.31
2019-02-11T13:45:19.495Z,74.99
2019-02-11T13:47:55.230Z,66.69
2019-02-11T13:50:23.797Z,69.92
2019-02-11T13:52:52.535Z,67.49
2019-02-11T13:55:21.701Z,59.87
2019-02-11T13:57:50.348Z,59.40
2019-02-11T14:00:36.893Z,72.89
2019-02-11T14:03:07.146Z,69.48
2019-02-11T14:05:36.164Z,76.10
2019-02-11T14:08:05.519Z,71.22
2019-02-11T14:10:34.118Z,69.73
2019-02-11T14:13:02.867Z,71.67
2019-02-11T14:15:31.939Z,73.69
2019-02-11T14:18:12.325Z,79.67
2019-02-11T14:20:35.959Z,83.29
2019-02-11T14:23:04.908Z,84.48
2019-02-11T14:25:43.695Z,85.77
2019-02-11T14:28:04.237Z,83.77
2019-02-11T14:30:33.459Z,82.68
2019-02-11T14:33:02.379Z,83.15
2019-02-11T14:35:31.496Z,85.07
2019-02-11T14:38:02.477Z,85.33
2019-02-11T14:40:30.394Z,82.84
2019-02-11T14:42:58.992Z,79.21
2019-02-11T14:45:28.040Z,75.99
2019-02-11T14:47:56.633Z,75.87
2019-02-11T14:50:25.570Z,77.80
2019-02-11T14:52:54.107Z,76.69
2019-02-11T14:55:22.704Z,75.50
2019-02-11T14:57:51.266Z,75.70
2019-02-11T15:00:21.536Z,74.64
2019-02-11T15:02:50.228Z,75.74
2019-02-11T15:05:19.259Z,76.57
2019-02-11T15:07:48.480Z,74.71
2019-02-11T15:10:17.096Z,72.95
2019-02-11T15:12:45.605Z,73.52
2019-02-11T15:15:14.521Z,73.37
2019-02-11T15:17:44.378Z,73.33
2019-02-11T15:20:15.254Z,75.26
2019-02-11T15:22:43.749Z,74.73
2019-02-11T15:25:15.057Z,74.94
2019-02-11T15:27:43.557Z,76.11
2019-02-11T15:30:14.623Z,76.23
2019-02-11T15:32:43.223Z,76.62
2019-02-11T15:35:11.962Z,76.97
2019-02-11T15:37:40.501Z,77.76
2019-02-11T15:40:17.333Z,77.22
2019-02-11T15:42:46.056Z,76.46
2019-02-11T15:45:15.436Z,77.16
2019-02-11T15:47:44.296Z,76.46
2019-02-11T15:50:15.493Z,76.97
2019-02-11T15:52:46.132Z,77.26
2019-02-11T15:55:17.419Z,77.36
2019-02-11T15:57:46.178Z,77.92
2019-02-11T16:00:19.756Z,79.21
2019-02-11T16:02:48.371Z,77.87
2019-02-11T16:05:17.044Z,78.52
2019-02-11T16:07:46.397Z,77.01
2019-02-11T16:10:26.680Z,79.22
2019-02-11T16:12:56.214Z,78.11
2019-02-11T16:15:24.888Z,78.49
2019-02-11T16:17:54.594Z,79.20
2019-02-11T16:20:23.178Z,75.28
2019-02-11T16:22:51.849Z,74.72
2019-02-11T16:25:21.636Z,73.60
2019-02-11T16:27:50.229Z,74.83
2019-02-11T16:30:19.920Z,71.85
2019-02-11T16:32:48.868Z,73.29
2019-02-11T16:35:18.496Z,72.19
2019-02-11T16:37:48.148Z,72.77
2019-02-11T16:40:22.268Z,71.99
2019-02-11T16:42:50.898Z,70.45
2019-02-11T16:45:19.430Z,69.43
2019-02-11T16:47:48.060Z,70.92
2019-02-11T16:50:16.655Z,67.91
2019-02-11T16:52:45.227Z,68.02
2019-02-11T16:55:14.814Z,68.87
2019-02-11T16:57:43.600Z,68.55
2019-02-11T17:00:20.095Z,69.28
2019-02-11T17:02:48.754Z,70.00
2019-02-11T17:05:17.396Z,68.93
2019-02-11T17:07:46.335Z,68.67
2019-02-11T17:10:15.873Z,67.63
2019-02-11T17:12:44.517Z,68.38
2019-02-11T17:15:20.769Z,70.80
2019-02-11T17:17:49.501Z,69.70
2019-02-11T17:20:18.189Z,69.86
2019-02-11T17:22:46.959Z,69.53
2019-02-11T17:25:18.605Z,70.65
2019-02-11T17:27:47.375Z,69.58
2019-02-11T17:30:22.262Z,70.13
2019-02-11T17:32:51.058Z,71.61
2019-02-11T17:35:19.704Z,71.37
2019-02-11T17:37:48.371Z,72.11
2019-02-11T17:40:18.115Z,71.67
2019-02-11T17:42:47.190Z,72.95
2019-02-11T17:45:27.123Z,72.75
2019-02-11T17:47:55.668Z,73.61
2019-02-11T17:50:24.356Z,72.49
2019-02-11T17:53:03.865Z,73.07
2019-02-11T17:55:52.595Z,73.16
2019-02-11T17:58:22.543Z,73.68
2019-02-11T18:00:52.783Z,73.62
2019-02-11T18:03:21.614Z,73.35
2019-02-11T18:05:50.492Z,74.79
2019-02-11T18:08:19.661Z,74.70
2019-02-11T18:10:49.459Z,74.77
2019-02-11T18:13:18.956Z,74.85
2019-02-11T18:15:47.874Z,75.36
2019-02-11T18:18:16.594Z,76.69
2019-02-11T18:20:45.154Z,74.82
2019-02-11T18:23:13.884Z,74.12
2019-02-11T18:25:42.545Z,74.77
2019-02-11T18:28:11.226Z,73.36
2019-02-11T18:30:40.114Z,72.89
2019-02-11T18:33:08.836Z,72.60
2019-02-11T18:35:37.519Z,72.63
2019-02-11T18:38:06.302Z,73.97
2019-02-11T18:40:34.897Z,75.76
2019-02-11T18:43:03.581Z,74.89
2019-02-11T18:45:35.820Z,74.41
2019-02-11T18:48:05.153Z,74.77
2019-02-11T18:50:33.830Z,74.28
2019-02-11T18:53:02.538Z,75.76
2019-02-11T18:55:31.291Z,76.08
2019-02-11T18:57:59.886Z,76.13
2019-02-11T19:00:28.503Z,76.25
2019-02-11T19:02:57.318Z,75.29
2019-02-11T19:05:26.485Z,76.67
2019-02-11T19:07:55.108Z,76.52
2019-02-11T19:10:23.784Z,76.01
2019-02-11T19:12:52.824Z,77.16
2019-02-11T19:15:21.959Z,76.82
2019-02-11T19:17:50.786Z,78.39
2019-02-11T19:20:19.517Z,77.98
2019-02-11T19:22:48.181Z,77.29
2019-02-11T19:25:16.755Z,77.79
2019-02-11T19:27:45.944Z,78.80
2019-02-11T19:30:23.049Z,79.49
2019-02-11T19:32:51.714Z,79.42
2019-02-11T19:35:20.520Z,80.86
2019-02-11T19:37:49.086Z,81.49
2019-02-11T19:40:19.882Z,83.97
2019-02-11T19:42:48.588Z,85.40
2019-02-11T19:45:22.059Z,84.95
2019-02-11T19:47:50.812Z,86.40
2019-02-11T19:50:19.560Z,88.75
2019-02-11T19:52:48.972Z,91.38
2019-02-11T19:55:17.813Z,92.85
2019-02-11T19:57:46.993Z,95.18
2019-02-11T20:00:21.821Z,97.36
2019-02-11T20:02:51.538Z,99.78
2019-02-11T20:05:20.354Z,100.00
2019-02-11T20:07:49.251Z,100.00
2019-02-11T20:10:25.484Z,100.00
2019-02-11T20:12:54.211Z,100.00
2019-02-11T20:15:26.041Z,100.00
2019-02-11T20:17:54.722Z,100.00
2019-02-11T20:20:24.065Z,100.00
2019-02-11T20:22:53.339Z,100.00
2019-02-11T20:25:21.939Z,100.00
2019-02-11T20:27:50.675Z,100.00
2019-02-11T20:30:30.447Z,100.00
2019-02-11T20:32:59.066Z,100.00
2019-02-11T20:35:27.670Z,100.00
2019-02-11T20:37:56.277Z,100.00
2019-02-11T20:40:27.179Z,100.00
2019-02-11T20:42:55.825Z,100.00
2019-02-11T20:45:28.477Z,100.00
2019-02-11T20:47:57.319Z,100.00
2019-02-11T20:50:25.883Z,100.00
2019-02-11T20:52:54.588Z,100.00
2019-02-11T20:55:24.302Z,100.00
2019-02-11T20:58:00.508Z,100.00
2019-02-11T21:00:29.637Z,100.00
2019-02-11T21:02:58.294Z,100.00
2019-02-11T21:05:26.856Z,100.00
2019-02-11T21:07:55.730Z,100.00
2019-02-11T21:10:27.739Z,100.00
2019-02-11T21:12:56.387Z,100.00
2019-02-11T21:15:25.059Z,100.00
2019-02-11T21:17:53.813Z,100.00
2019-02-11T21:20:28.111Z,100.00
2019-02-11T21:22:56.793Z,100.00
2019-02-11T21:25:25.584Z,100.00
2019-02-11T21:27:54.248Z,100.00
2019-02-11T21:30:22.804Z,100.00
2019-02-11T21:32:51.454Z,100.00
2019-02-11T21:35:19.988Z,100.00
2019-02-11T21:37:48.654Z,100.00
2019-02-11T21:40:17.185Z,100.00
2019-02-11T21:42:45.778Z,100.00
2019-02-11T21:45:14.952Z,100.00
2019-02-11T21:47:43.504Z,100.00
2019-02-11T21:50:26.282Z,100.00
2019-02-11T21:52:50.615Z,100.00
2019-02-11T21:55:24.752Z,100.00
2019-02-11T21:57:53.286Z,100.00
2019-02-11T22:00:24.611Z,100.00
2019-02-11T22:02:53.172Z,100.00
2019-02-11T22:05:21.680Z,100.00
2019-02-11T22:07:50.260Z,100.00
2019-02-11T22:10:21.222Z,100.00
2019-02-11T22:12:49.841Z,100.00
2019-02-11T22:15:18.526Z,100.00
2019-02-11T22:17:47.509Z,100.00
2019-02-11T22:20:18.693Z,100.00
2019-02-11T22:22:47.299Z,100.00
2019-02-11T22:25:15.904Z,100.00
2019-02-11T22:27:44.540Z,100.00
2019-02-11T22:30:24.029Z,100.00
2019-02-11T22:32:53.030Z,100.00
2019-02-11T22:35:21.556Z,99.99
2019-02-11T22:37:52.716Z,100.00
2019-02-11T22:40:21.310Z,99.53
2019-02-11T22:42:49.894Z,99.23
2019-02-11T22:45:21.472Z,98.57
2019-02-11T22:47:50.174Z,98.06
2019-02-11T22:50:18.711Z,97.25
2019-02-11T22:52:47.263Z,97.53
2019-02-11T22:55:16.165Z,97.42
2019-02-11T22:57:44.722Z,97.81
2019-02-11T23:00:22.012Z,97.34
2019-02-11T23:02:50.586Z,97.99
2019-02-11T23:05:19.139Z,98.14
2019-02-11T23:07:47.704Z,95.98
2019-02-11T23:10:16.218Z,95.45
2019-02-11T23:12:44.775Z,95.08
2019-02-11T23:15:13.303Z,94.40
2019-02-11T23:17:41.856Z,94.71
2019-02-11T23:20:10.447Z,94.10
2019-02-11T23:22:39.055Z,94.32
2019-02-11T23:25:07.780Z,94.66
2019-02-11T23:27:36.715Z,94.86
2019-02-11T23:30:13.336Z,95.10
2019-02-11T23:32:38.134Z,96.05
2019-02-11T23:35:07.034Z,95.59
2019-02-11T23:37:35.605Z,96.70
2019-02-11T23:40:06.432Z,95.96
2019-02-11T23:42:34.999Z,96.34
2019-02-11T23:45:04.742Z,96.39
2019-02-11T23:47:33.316Z,96.28
2019-02-11T23:50:01.847Z,96.89
2019-02-11T23:52:30.401Z,98.06
2019-02-11T23:54:58.938Z,96.75
2019-02-11T23:57:29.975Z,97.85
2019-02-11T23:59:58.524Z,97.23
